createdAt,value
2024-01-30T00:02:20.106Z,2.90
2024-01-30T00:06:22.233Z,3.10
2024-01-30T00:10:23.823Z,2.78
2024-01-30T00:14:25.437Z,2.45
2024-01-30T00:18:26.899Z,2.90
2024-01-30T00:22:31.440Z,2.40
2024-01-30T00:26:32.911Z,2.88
2024-01-30T00:30:34.354Z,2.85
2024-01-30T00:34:36.012Z,2.85
2024-01-30T00:38:38.585Z,2.78
2024-01-30T00:42:40.057Z,2.63
2024-01-30T00:46:41.541Z,2.55
2024-01-30T00:50:43.025Z,2.42
2024-01-30T00:54:45.067Z,2.50
2024-01-30T00:58:46.934Z,2.72
2024-01-30T01:02:48.496Z,2.15
2024-01-30T01:06:50.326Z,2.15
2024-01-30T01:10:51.862Z,1.90
2024-01-30T01:14:53.486Z,2.35
2024-01-30T01:18:55.032Z,2.85
2024-01-30T01:22:56.525Z,2.40
2024-01-30T01:26:59.797Z,2.28
2024-01-30T01:31:06.279Z,2.40
2024-01-30T01:35:08.163Z,2.58
2024-01-30T01:39:09.864Z,2.65
2024-01-30T01:43:11.401Z,2.03
2024-01-30T01:47:12.917Z,2.13
2024-01-30T01:51:15.380Z,2.15
2024-01-30T01:55:18.695Z,2.38
2024-01-30T01:59:21.457Z,2.45
2024-01-30T02:03:23.274Z,2.50
2024-01-30T02:07:25.473Z,2.28
2024-01-30T02:11:27.457Z,2.58
2024-01-30T02:15:30.194Z,2.40
2024-01-30T02:19:31.785Z,2.10
2024-01-30T02:23:35.448Z,2.00
2024-01-30T02:27:37.281Z,2.20
2024-01-30T02:31:38.704Z,2.45
2024-01-30T02:35:40.394Z,2.28
2024-01-30T02:39:41.874Z,2.60
2024-01-30T02:43:43.344Z,2.78
2024-01-30T02:47:45.037Z,2.80
2024-01-30T02:51:46.564Z,2.70
2024-01-30T02:55:48.256Z,2.70
2024-01-30T02:59:49.810Z,2.38
2024-01-30T03:03:51.516Z,3.67
2024-01-30T03:07:53.161Z,2.70
2024-01-30T03:11:54.673Z,2.63
2024-01-30T03:15:56.125Z,2.47
2024-01-30T03:19:57.864Z,2.38
2024-01-30T03:23:59.409Z,2.30
2024-01-30T03:28:00.963Z,2.50
2024-01-30T03:32:02.497Z,2.65
2024-01-30T03:36:05.854Z,2.40
2024-01-30T03:40:07.965Z,2.80
2024-01-30T03:44:09.514Z,2.90
2024-01-30T03:48:11.042Z,2.40
2024-01-30T03:52:12.566Z,2.67
2024-01-30T03:56:15.018Z,2.53
2024-01-30T04:00:16.856Z,2.45
2024-01-30T04:04:21.776Z,2.38
2024-01-30T04:08:23.746Z,2.40
2024-01-30T04:12:25.505Z,2.08
2024-01-30T04:16:27.162Z,2.25
2024-01-30T04:20:28.822Z,2.67
2024-01-30T04:24:30.306Z,2.10
2024-01-30T04:28:31.956Z,2.78
2024-01-30T04:32:33.828Z,2.50
2024-01-30T04:36:35.286Z,2.65
2024-01-30T04:40:36.817Z,2.08
2024-01-30T04:44:38.381Z,3.05
2024-01-30T04:48:40.066Z,2.75
2024-01-30T04:52:41.673Z,3.03
2024-01-30T04:56:43.124Z,2.90
2024-01-30T05:00:44.888Z,2.92
2024-01-30T05:04:46.667Z,2.80
2024-01-30T05:08:48.179Z,2.60
2024-01-30T05:12:49.749Z,3.67
2024-01-30T05:16:51.221Z,3.40
2024-01-30T05:20:52.724Z,3.55
2024-01-30T05:24:54.273Z,3.70
2024-01-30T05:28:55.835Z,3.55
2024-01-30T05:32:57.450Z,4.20
2024-01-30T05:36:58.996Z,3.45
2024-01-30T05:41:00.496Z,4.35
2024-01-30T05:45:01.962Z,3.33
2024-01-30T05:49:03.564Z,4.30
2024-01-30T05:53:05.142Z,3.45
2024-01-30T05:57:06.754Z,3.80
2024-01-30T06:01:09.816Z,3.67
2024-01-30T06:05:11.501Z,3.65
2024-01-30T06:09:14.140Z,3.88
2024-01-30T06:13:15.785Z,3.25
2024-01-30T06:17:17.641Z,4.32
2024-01-30T06:21:19.489Z,3.50
2024-01-30T06:25:21.107Z,3.38
2024-01-30T06:29:23.058Z,3.58
2024-01-30T06:33:24.642Z,3.60
2024-01-30T06:37:26.195Z,4.07
2024-01-30T06:41:27.834Z,2.90
2024-01-30T06:45:29.284Z,3.53
2024-01-30T06:49:30.906Z,3.25
2024-01-30T06:53:32.474Z,2.92
2024-01-30T06:57:33.983Z,3.03
2024-01-30T07:01:35.543Z,2.72
2024-01-30T07:05:37.165Z,2.60
2024-01-30T07:09:38.615Z,2.92
2024-01-30T07:13:40.074Z,3.55
2024-01-30T07:17:42.463Z,3.50
2024-01-30T07:21:44.010Z,3.05
2024-01-30T07:25:48.409Z,3.35
2024-01-30T07:29:51.402Z,2.45
2024-01-30T07:33:52.902Z,2.85
2024-01-30T07:37:54.413Z,3.22
2024-01-30T07:41:55.861Z,3.00
2024-01-30T07:45:57.548Z,2.80
2024-01-30T07:49:59.126Z,3.17
2024-01-30T07:54:00.725Z,2.72
2024-01-30T07:58:02.836Z,2.75
2024-01-30T08:02:04.761Z,3.60
2024-01-30T08:06:07.790Z,3.38
2024-01-30T08:10:09.962Z,3.78
2024-01-30T08:14:11.783Z,2.88
2024-01-30T08:18:13.587Z,2.33
2024-01-30T08:22:15.147Z,2.33
2024-01-30T08:26:16.791Z,2.17
2024-01-30T08:30:18.377Z,2.63
2024-01-30T08:34:20.356Z,2.17
2024-01-30T08:38:21.824Z,2.85
2024-01-30T08:42:24.063Z,2.22
2024-01-30T08:46:25.904Z,2.17
2024-01-30T08:50:27.874Z,2.30
2024-01-30T08:54:29.484Z,2.40
2024-01-30T08:58:31.668Z,2.33
2024-01-30T09:02:34.378Z,2.47
2024-01-30T09:06:35.898Z,2.40
2024-01-30T09:10:38.416Z,3.13
2024-01-30T09:14:41.723Z,3.00
2024-01-30T09:18:43.436Z,2.55
2024-01-30T09:22:44.972Z,3.00
2024-01-30T09:26:46.507Z,3.88
2024-01-30T09:30:48.090Z,3.40
2024-01-30T09:34:49.783Z,2.83
2024-01-30T09:38:51.557Z,3.63
2024-01-30T09:42:53.227Z,4.43
2024-01-30T09:46:54.834Z,3.47
2024-01-30T09:50:58.508Z,3.30
2024-01-30T09:55:02.258Z,4.13
2024-01-30T09:59:03.828Z,4.78
2024-01-30T10:03:05.943Z,3.60
2024-01-30T10:07:10.336Z,3.35
2024-01-30T10:11:12.275Z,3.60
2024-01-30T10:15:15.285Z,3.65
2024-01-30T10:19:16.844Z,3.13
2024-01-30T10:23:20.161Z,3.45
2024-01-30T10:27:27.858Z,3.72
2024-01-30T10:31:29.488Z,3.38
2024-01-30T10:35:31.143Z,4.35
2024-01-30T10:39:35.185Z,3.50
2024-01-30T10:43:39.302Z,4.65
2024-01-30T10:47:49.586Z,3.10
2024-01-30T10:51:52.958Z,4.18
2024-01-30T10:55:56.360Z,3.72
2024-01-30T10:59:59.532Z,5.35
2024-01-30T11:04:01.188Z,3.90
2024-01-30T11:08:15.175Z,4.50
2024-01-30T11:12:16.789Z,3.65
2024-01-30T11:16:18.294Z,3.65
2024-01-30T11:20:26.510Z,3.83
2024-01-30T11:24:28.794Z,3.65
2024-01-30T11:28:35.800Z,3.70
2024-01-30T11:32:38.124Z,4.20
2024-01-30T11:36:44.147Z,3.58
2024-01-30T11:40:46.990Z,4.00
2024-01-30T11:44:50.142Z,3.67
2024-01-30T11:48:53.196Z,4.13
2024-01-30T11:52:55.622Z,2.97
2024-01-30T11:56:57.058Z,3.15
2024-01-30T12:00:59.291Z,3.10
2024-01-30T12:05:05.863Z,3.10
2024-01-30T12:09:11.076Z,3.53
2024-01-30T12:13:13.726Z,2.92
2024-01-30T12:17:25.889Z,2.97
2024-01-30T12:21:27.608Z,2.60
2024-01-30T12:25:29.411Z,3.10
2024-01-30T12:29:36.274Z,2.90
2024-01-30T12:33:40.003Z,2.85
2024-01-30T12:37:43.750Z,2.58
2024-01-30T12:41:45.392Z,2.90
2024-01-30T12:45:48.155Z,2.90
2024-01-30T12:49:49.876Z,3.38
2024-01-30T12:53:51.497Z,3.70
2024-01-30T12:57:53.022Z,2.88
2024-01-30T13:01:55.010Z,3.25
2024-01-30T13:05:56.656Z,3.30
2024-01-30T13:10:03.960Z,3.10
2024-01-30T13:14:05.568Z,3.25
2024-01-30T13:18:07.568Z,3.03
2024-01-30T13:22:09.169Z,2.88
2024-01-30T13:26:10.673Z,3.13
2024-01-30T13:30:12.562Z,2.67
2024-01-30T13:34:15.063Z,3.28
2024-01-30T13:38:16.950Z,2.83
2024-01-30T13:42:18.524Z,2.65
2024-01-30T13:46:20.184Z,2.50
2024-01-30T13:50:21.666Z,2.58
2024-01-30T13:54:23.821Z,2.40
2024-01-30T13:58:25.359Z,3.05
2024-01-30T14:02:27.125Z,2.17
2024-01-30T14:06:28.931Z,2.10
2024-01-30T14:10:30.719Z,2.67
2024-01-30T14:14:32.248Z,3.08
2024-01-30T14:18:33.729Z,3.10
2024-01-30T14:22:35.407Z,4.05
2024-01-30T14:26:37.809Z,3.40
2024-01-30T14:30:39.369Z,4.93
2024-01-30T14:34:41.083Z,4.15
2024-01-30T14:38:43.657Z,4.05
2024-01-30T14:42:45.717Z,3.50
2024-01-30T14:46:47.370Z,3.72
2024-01-30T14:50:48.955Z,4.07
2024-01-30T14:54:50.599Z,3.38
2024-01-30T14:58:53.337Z,3.28
2024-01-30T15:02:55.008Z,4.22
2024-01-30T15:06:56.908Z,3.40
2024-01-30T15:11:00.006Z,3.28
2024-01-30T15:15:02.005Z,3.53
2024-01-30T15:19:05.926Z,3.45
2024-01-30T15:23:07.772Z,3.20
2024-01-30T15:27:09.317Z,2.95
2024-01-30T15:31:10.930Z,3.17
2024-01-30T15:35:12.595Z,3.00
2024-01-30T15:39:16.307Z,3.38
2024-01-30T15:43:17.889Z,4.03
2024-01-30T15:47:19.501Z,3.20
2024-01-30T15:51:20.956Z,3.58
2024-01-30T15:55:22.532Z,3.00
2024-01-30T15:59:24.142Z,3.65
2024-01-30T16:03:27.822Z,3.60
2024-01-30T16:07:32.352Z,3.00
2024-01-30T16:11:33.952Z,3.25
2024-01-30T16:15:35.740Z,2.90
2024-01-30T16:19:37.323Z,3.35
2024-01-30T16:23:38.982Z,3.33
2024-01-30T16:27:40.795Z,2.90
2024-01-30T16:31:42.341Z,3.67
2024-01-30T16:35:46.748Z,3.45
2024-01-30T16:39:49.513Z,2.60
2024-01-30T16:43:51.017Z,2.85
2024-01-30T16:47:52.548Z,3.00
2024-01-30T16:51:54.120Z,2.92
2024-01-30T16:55:55.679Z,3.40
2024-01-30T16:59:57.401Z,3.78
2024-01-30T17:03:58.894Z,4.35
2024-01-30T17:08:00.960Z,4.68
2024-01-30T17:12:04.116Z,4.20
2024-01-30T17:16:05.900Z,4.22
2024-01-30T17:20:08.786Z,4.07
2024-01-30T17:24:12.176Z,4.47
2024-01-30T17:28:14.505Z,4.05
2024-01-30T17:32:16.046Z,4.38
2024-01-30T17:36:17.624Z,3.75
2024-01-30T17:40:19.926Z,3.70
2024-01-30T17:44:22.011Z,2.60
2024-01-30T17:48:23.736Z,3.40
2024-01-30T17:52:25.473Z,3.67
2024-01-30T17:56:27.106Z,3.20
2024-01-30T18:00:28.728Z,3.22
2024-01-30T18:04:30.703Z,3.60
2024-01-30T18:08:35.517Z,3.03
2024-01-30T18:12:37.086Z,3.03
2024-01-30T18:16:38.673Z,3.42
2024-01-30T18:20:41.228Z,3.38
2024-01-30T18:24:43.567Z,3.10
2024-01-30T18:28:45.418Z,3.17
2024-01-30T18:32:47.338Z,3.63
2024-01-30T18:36:48.881Z,3.35
2024-01-30T18:40:50.552Z,3.50
2024-01-30T18:44:52.035Z,3.65
2024-01-30T18:48:53.746Z,2.92
2024-01-30T18:52:55.361Z,3.72
2024-01-30T18:56:56.832Z,4.15
2024-01-30T19:00:58.447Z,3.08
2024-01-30T19:05:01.290Z,3.17
2024-01-30T19:09:03.525Z,3.10
2024-01-30T19:13:06.579Z,3.17
2024-01-30T19:17:08.163Z,3.10
2024-01-30T19:21:09.726Z,3.15
2024-01-30T19:25:11.332Z,3.17
2024-01-30T19:29:12.812Z,3.00
2024-01-30T19:33:14.276Z,3.33
2024-01-30T19:37:15.755Z,2.55
2024-01-30T19:41:17.333Z,2.90
2024-01-30T19:45:18.933Z,3.85
2024-01-30T19:49:21.549Z,3.67
2024-01-30T19:53:24.293Z,3.30
2024-01-30T19:57:25.820Z,3.65
2024-01-30T20:01:27.584Z,3.92
2024-01-30T20:05:29.308Z,3.70
2024-01-30T20:09:30.883Z,3.58
2024-01-30T20:13:33.058Z,4.30
2024-01-30T20:17:34.756Z,4.00
2024-01-30T20:21:37.112Z,3.20
2024-01-30T20:25:38.672Z,3.75
2024-01-30T20:29:40.159Z,4.03
2024-01-30T20:33:41.959Z,3.50
2024-01-30T20:37:43.579Z,4.18
2024-01-30T20:41:45.981Z,4.07
2024-01-30T20:45:47.609Z,3.65
2024-01-30T20:49:49.240Z,3.15
2024-01-30T20:53:50.699Z,3.40
2024-01-30T20:57:52.384Z,3.20
2024-01-30T21:01:53.996Z,2.78
2024-01-30T21:05:56.445Z,2.15
2024-01-30T21:09:58.056Z,2.20
2024-01-30T21:13:59.672Z,1.88
2024-01-30T21:18:01.696Z,1.58
2024-01-30T21:22:03.287Z,1.63
2024-01-30T21:26:05.034Z,2.00
2024-01-30T21:30:07.764Z,1.70
2024-01-30T21:34:09.315Z,1.60
2024-01-30T21:38:10.808Z,1.40
2024-01-30T21:42:12.424Z,2.53
2024-01-30T21:46:24.060Z,1.60
2024-01-30T21:50:25.657Z,1.25
2024-01-30T21:54:27.137Z,1.38
2024-01-30T21:58:28.711Z,1.55
2024-01-30T22:02:30.199Z,1.35
2024-01-30T22:06:31.811Z,1.50
2024-01-30T22:10:33.460Z,1.20
2024-01-30T22:14:36.375Z,1.55
2024-01-30T22:18:38.031Z,1.52
2024-01-30T22:22:39.512Z,1.35
2024-01-30T22:26:42.691Z,1.27
2024-01-30T22:30:44.330Z,1.42
2024-01-30T22:34:45.930Z,1.27
2024-01-30T22:38:47.411Z,1.25
2024-01-30T22:42:48.905Z,1.42
2024-01-30T22:46:50.490Z,1.20
2024-01-30T22:50:52.090Z,1.75
2024-01-30T22:54:53.654Z,1.60
2024-01-30T22:58:55.217Z,1.90
2024-01-30T23:02:57.783Z,1.50
2024-01-30T23:06:59.551Z,1.77
2024-01-30T23:11:01.012Z,1.30
2024-01-30T23:15:03.874Z,1.40
2024-01-30T23:19:05.574Z,1.15
2024-01-30T23:23:09.268Z,1.80
2024-01-30T23:27:10.706Z,1.67
2024-01-30T23:31:12.272Z,1.92
2024-01-30T23:35:13.982Z,1.67
2024-01-30T23:39:15.631Z,1.25
2024-01-30T23:43:17.166Z,1.30
2024-01-30T23:47:18.769Z,1.50
2024-01-30T23:51:20.266Z,1.23
2024-01-30T23:55:21.763Z,1.08
2024-01-30T23:59:23.460Z,0.80
